sensor_id;sensor_type;location;lat;lon;timestamp;P1;durP1;ratioP1;P2;durP2;ratioP2
7471;SDS011;3777;48.722;8.110;2023-08-12T00:00:56;5.40;;;4.80;;
7471;SDS011;3777;48.722;8.110;2023-08-12T00:03:23;5.80;;;5.30;;
7471;SDS011;3777;48.722;8.110;2023-08-12T00:05:50;5.80;;;4.90;;
7471;SDS011;3777;48.722;8.110;2023-08-12T00:08:20;7.20;;;4.88;;
7471;SDS011;3777;48.722;8.110;2023-08-12T00:10:47;5.78;;;5.22;;
7471;SDS011;3777;48.722;8.110;2023-08-12T00:13:14;5.78;;;5.28;;
7471;SDS011;3777;48.722;8.110;2023-08-12T00:15:42;6.22;;;4.82;;
7471;SDS011;3777;48.722;8.110;2023-08-12T00:18:09;5.53;;;4.93;;
7471;SDS011;3777;48.722;8.110;2023-08-12T00:20:36;6.82;;;5.85;;
7471;SDS011;3777;48.722;8.110;2023-08-12T00:23:04;6.47;;;5.82;;
7471;SDS011;3777;48.722;8.110;2023-08-12T00:25:33;9.15;;;5.85;;
7471;SDS011;3777;48.722;8.110;2023-08-12T00:28:00;6.97;;;5.47;;
7471;SDS011;3777;48.722;8.110;2023-08-12T00:30:27;7.45;;;5.70;;
7471;SDS011;3777;48.722;8.110;2023-08-12T00:32:54;6.68;;;5.97;;
7471;SDS011;3777;48.722;8.110;2023-08-12T00:35:21;6.05;;;5.45;;
7471;SDS011;3777;48.722;8.110;2023-08-12T00:37:48;6.07;;;5.35;;
7471;SDS011;3777;48.722;8.110;2023-08-12T00:40:15;5.60;;;5.10;;
7471;SDS011;3777;48.722;8.110;2023-08-12T00:42:43;5.57;;;5.05;;
7471;SDS011;3777;48.722;8.110;2023-08-12T00:45:12;6.40;;;5.18;;
7471;SDS011;3777;48.722;8.110;2023-08-12T00:47:39;5.32;;;4.78;;
7471;SDS011;3777;48.722;8.110;2023-08-12T00:50:07;6.53;;;5.45;;
7471;SDS011;3777;48.722;8.110;2023-08-12T00:52:37;5.88;;;5.20;;
7471;SDS011;3777;48.722;8.110;2023-08-12T00:55:04;5.43;;;4.93;;
7471;SDS011;3777;48.722;8.110;2023-08-12T00:57:31;5.45;;;4.95;;
7471;SDS011;3777;48.722;8.110;2023-08-12T01:00:00;6.30;;;5.07;;
7471;SDS011;3777;48.722;8.110;2023-08-12T01:02:28;7.07;;;5.50;;
7471;SDS011;3777;48.722;8.110;2023-08-12T01:04:55;5.63;;;4.95;;
7471;SDS011;3777;48.722;8.110;2023-08-12T01:07:23;6.03;;;4.90;;
7471;SDS011;3777;48.722;8.110;2023-08-12T01:09:50;5.50;;;5.00;;
7471;SDS011;3777;48.722;8.110;2023-08-12T01:12:18;8.07;;;5.38;;
7471;SDS011;3777;48.722;8.110;2023-08-12T01:14:51;8.07;;;5.53;;
7471;SDS011;3777;48.722;8.110;2023-08-12T01:17:26;6.80;;;5.30;;
7471;SDS011;3777;48.722;8.110;2023-08-12T01:19:55;7.75;;;5.13;;
7471;SDS011;3777;48.722;8.110;2023-08-12T01:22:23;5.80;;;5.30;;
7471;SDS011;3777;48.722;8.110;2023-08-12T01:24:57;6.28;;;5.50;;
7471;SDS011;3777;48.722;8.110;2023-08-12T01:27:24;6.97;;;5.05;;
7471;SDS011;3777;48.722;8.110;2023-08-12T01:29:51;6.65;;;5.03;;
7471;SDS011;3777;48.722;8.110;2023-08-12T01:32:21;5.65;;;4.78;;
7471;SDS011;3777;48.722;8.110;2023-08-12T01:34:53;5.95;;;5.00;;
7471;SDS011;3777;48.722;8.110;2023-08-12T01:37:28;5.40;;;4.88;;
7471;SDS011;3777;48.722;8.110;2023-08-12T01:39:55;6.13;;;4.65;;
7471;SDS011;3777;48.722;8.110;2023-08-12T01:42:27;6.85;;;5.15;;
7471;SDS011;3777;48.722;8.110;2023-08-12T01:44:55;6.32;;;5.15;;
7471;SDS011;3777;48.722;8.110;2023-08-12T01:47:22;5.57;;;4.75;;
7471;SDS011;3777;48.722;8.110;2023-08-12T01:49:49;6.03;;;4.78;;
7471;SDS011;3777;48.722;8.110;2023-08-12T01:52:16;5.63;;;4.97;;
7471;SDS011;3777;48.722;8.110;2023-08-12T01:54:43;6.07;;;5.13;;
7471;SDS011;3777;48.722;8.110;2023-08-12T01:57:11;6.72;;;4.68;;
7471;SDS011;3777;48.722;8.110;2023-08-12T01:59:38;4.93;;;4.53;;
7471;SDS011;3777;48.722;8.110;2023-08-12T02:02:06;5.10;;;4.70;;
7471;SDS011;3777;48.722;8.110;2023-08-12T02:04:33;5.50;;;4.97;;
7471;SDS011;3777;48.722;8.110;2023-08-12T02:07:01;9.40;;;4.65;;
7471;SDS011;3777;48.722;8.110;2023-08-12T02:09:28;7.20;;;4.50;;
7471;SDS011;3777;48.722;8.110;2023-08-12T02:11:55;5.32;;;4.90;;
7471;SDS011;3777;48.722;8.110;2023-08-12T02:14:24;5.25;;;4.63;;
7471;SDS011;3777;48.722;8.110;2023-08-12T02:16:51;6.20;;;4.68;;
7471;SDS011;3777;48.722;8.110;2023-08-12T02:19:18;5.07;;;4.55;;
7471;SDS011;3777;48.722;8.110;2023-08-12T02:21:45;5.97;;;4.22;;
7471;SDS011;3777;48.722;8.110;2023-08-12T02:24:12;5.10;;;4.32;;
7471;SDS011;3777;48.722;8.110;2023-08-12T02:26:38;4.85;;;4.07;;
7471;SDS011;3777;48.722;8.110;2023-08-12T02:29:05;5.38;;;4.25;;
7471;SDS011;3777;48.722;8.110;2023-08-12T02:31:34;4.82;;;4.40;;
7471;SDS011;3777;48.722;8.110;2023-08-12T02:34:01;4.68;;;4.28;;
7471;SDS011;3777;48.722;8.110;2023-08-12T02:36:28;5.30;;;4.30;;
7471;SDS011;3777;48.722;8.110;2023-08-12T02:38:55;6.18;;;3.90;;
7471;SDS011;3777;48.722;8.110;2023-08-12T02:41:22;5.47;;;3.78;;
7471;SDS011;3777;48.722;8.110;2023-08-12T02:43:49;5.45;;;4.10;;
7471;SDS011;3777;48.722;8.110;2023-08-12T02:46:16;5.18;;;4.38;;
7471;SDS011;3777;48.722;8.110;2023-08-12T02:48:45;6.70;;;4.40;;
7471;SDS011;3777;48.722;8.110;2023-08-12T02:51:13;5.45;;;4.65;;
7471;SDS011;3777;48.722;8.110;2023-08-12T02:53:40;5.35;;;4.72;;
7471;SDS011;3777;48.722;8.110;2023-08-12T02:56:07;7.28;;;4.82;;
7471;SDS011;3777;48.722;8.110;2023-08-12T02:58:34;6.53;;;4.50;;
7471;SDS011;3777;48.722;8.110;2023-08-12T03:01:02;6.43;;;4.40;;
7471;SDS011;3777;48.722;8.110;2023-08-12T03:03:30;5.45;;;4.50;;
7471;SDS011;3777;48.722;8.110;2023-08-12T03:05:58;4.47;;;4.07;;
7471;SDS011;3777;48.722;8.110;2023-08-12T03:08:25;6.03;;;4.50;;
7471;SDS011;3777;48.722;8.110;2023-08-12T03:10:57;4.80;;;4.30;;
7471;SDS011;3777;48.722;8.110;2023-08-12T03:13:25;5.78;;;4.40;;
7471;SDS011;3777;48.722;8.110;2023-08-12T03:15:52;5.10;;;4.00;;
7471;SDS011;3777;48.722;8.110;2023-08-12T03:18:19;6.32;;;4.22;;
7471;SDS011;3777;48.722;8.110;2023-08-12T03:20:46;5.28;;;4.78;;
7471;SDS011;3777;48.722;8.110;2023-08-12T03:23:15;4.78;;;4.38;;
7471;SDS011;3777;48.722;8.110;2023-08-12T03:25:42;7.00;;;4.82;;
7471;SDS011;3777;48.722;8.110;2023-08-12T03:28:09;5.47;;;4.97;;
7471;SDS011;3777;48.722;8.110;2023-08-12T03:30:36;4.65;;;4.25;;
7471;SDS011;3777;48.722;8.110;2023-08-12T03:33:03;6.40;;;4.72;;
7471;SDS011;3777;48.722;8.110;2023-08-12T03:35:30;5.72;;;4.63;;
7471;SDS011;3777;48.722;8.110;2023-08-12T03:37:57;5.63;;;4.68;;
7471;SDS011;3777;48.722;8.110;2023-08-12T03:40:26;5.85;;;4.78;;
7471;SDS011;3777;48.722;8.110;2023-08-12T03:42:52;5.97;;;4.97;;
7471;SDS011;3777;48.722;8.110;2023-08-12T03:45:19;5.75;;;4.55;;
7471;SDS011;3777;48.722;8.110;2023-08-12T03:47:46;6.70;;;4.75;;
7471;SDS011;3777;48.722;8.110;2023-08-12T03:50:13;5.13;;;4.63;;
7471;SDS011;3777;48.722;8.110;2023-08-12T03:52:40;5.72;;;5.03;;
7471;SDS011;3777;48.722;8.110;2023-08-12T03:55:07;5.40;;;4.90;;
7471;SDS011;3777;48.722;8.110;2023-08-12T03:57:36;6.00;;;5.40;;
7471;SDS011;3777;48.722;8.110;2023-08-12T04:00:03;5.65;;;5.10;;
7471;SDS011;3777;48.722;8.110;2023-08-12T04:02:33;5.63;;;5.07;;
7471;SDS011;3777;48.722;8.110;2023-08-12T04:05:00;6.07;;;5.35;;
7471;SDS011;3777;48.722;8.110;2023-08-12T04:07:26;5.80;;;4.80;;
7471;SDS011;3777;48.722;8.110;2023-08-12T04:09:53;6.30;;;5.05;;
7471;SDS011;3777;48.722;8.110;2023-08-12T04:12:20;7.20;;;5.43;;
7471;SDS011;3777;48.722;8.110;2023-08-12T04:14:49;6.22;;;5.18;;
7471;SDS011;3777;48.722;8.110;2023-08-12T04:17:16;5.78;;;5.28;;
7471;SDS011;3777;48.722;8.110;2023-08-12T04:19:42;5.78;;;5.18;;
7471;SDS011;3777;48.722;8.110;2023-08-12T04:22:09;6.35;;;5.45;;
7471;SDS011;3777;48.722;8.110;2023-08-12T04:24:36;6.57;;;5.72;;
7471;SDS011;3777;48.722;8.110;2023-08-12T04:27:03;7.43;;;5.55;;
7471;SDS011;3777;48.722;8.110;2023-08-12T04:29:30;6.53;;;5.68;;
7471;SDS011;3777;48.722;8.110;2023-08-12T04:31:59;6.75;;;5.70;;
7471;SDS011;3777;48.722;8.110;2023-08-12T04:34:26;6.63;;;5.60;;
7471;SDS011;3777;48.722;8.110;2023-08-12T04:36:53;7.47;;;5.97;;
7471;SDS011;3777;48.722;8.110;2023-08-12T04:39:20;8.35;;;5.95;;
7471;SDS011;3777;48.722;8.110;2023-08-12T04:41:47;5.75;;;5.15;;
7471;SDS011;3777;48.722;8.110;2023-08-12T04:44:14;5.38;;;4.88;;
7471;SDS011;3777;48.722;8.110;2023-08-12T04:46:41;5.78;;;5.28;;
7471;SDS011;3777;48.722;8.110;2023-08-12T04:49:09;5.93;;;5.32;;
7471;SDS011;3777;48.722;8.110;2023-08-12T04:51:36;7.30;;;6.38;;
7471;SDS011;3777;48.722;8.110;2023-08-12T04:54:03;7.82;;;6.32;;
7471;SDS011;3777;48.722;8.110;2023-08-12T04:56:32;9.02;;;6.15;;
7471;SDS011;3777;48.722;8.110;2023-08-12T04:58:59;6.07;;;5.47;;
7471;SDS011;3777;48.722;8.110;2023-08-12T05:01:26;6.38;;;5.57;;
7471;SDS011;3777;48.722;8.110;2023-08-12T05:03:53;8.70;;;6.05;;
7471;SDS011;3777;48.722;8.110;2023-08-12T05:06:21;6.22;;;5.63;;
7471;SDS011;3777;48.722;8.110;2023-08-12T05:08:49;6.28;;;5.65;;
7471;SDS011;3777;48.722;8.110;2023-08-12T05:11:16;7.47;;;5.55;;
7471;SDS011;3777;48.722;8.110;2023-08-12T05:13:43;6.45;;;5.85;;
7471;SDS011;3777;48.722;8.110;2023-08-12T05:16:10;8.43;;;5.80;;
7471;SDS011;3777;48.722;8.110;2023-08-12T05:18:37;8.02;;;5.88;;
7471;SDS011;3777;48.722;8.110;2023-08-12T05:21:04;7.85;;;5.63;;
7471;SDS011;3777;48.722;8.110;2023-08-12T05:23:32;6.03;;;5.43;;
7471;SDS011;3777;48.722;8.110;2023-08-12T05:25:59;6.53;;;4.80;;
7471;SDS011;3777;48.722;8.110;2023-08-12T05:28:26;5.70;;;5.20;;
7471;SDS011;3777;48.722;8.110;2023-08-12T05:30:53;5.53;;;5.03;;
7471;SDS011;3777;48.722;8.110;2023-08-12T05:33:20;8.30;;;5.82;;
7471;SDS011;3777;48.722;8.110;2023-08-12T05:35:47;6.32;;;5.68;;
7471;SDS011;3777;48.722;8.110;2023-08-12T05:38:14;6.82;;;5.60;;
7471;SDS011;3777;48.722;8.110;2023-08-12T05:40:43;8.52;;;5.53;;
7471;SDS011;3777;48.722;8.110;2023-08-12T05:43:10;5.78;;;5.15;;
7471;SDS011;3777;48.722;8.110;2023-08-12T05:45:37;8.05;;;5.57;;
7471;SDS011;3777;48.722;8.110;2023-08-12T05:48:04;6.47;;;5.30;;
7471;SDS011;3777;48.722;8.110;2023-08-12T05:50:31;5.60;;;5.10;;
7471;SDS011;3777;48.722;8.110;2023-08-12T05:52:58;8.95;;;6.03;;
7471;SDS011;3777;48.722;8.110;2023-08-12T05:55:25;5.72;;;5.22;;
7471;SDS011;3777;48.722;8.110;2023-08-12T05:57:53;6.32;;;5.72;;
7471;SDS011;3777;48.722;8.110;2023-08-12T06:00:20;6.97;;;5.28;;
7471;SDS011;3777;48.722;8.110;2023-08-12T06:02:47;7.38;;;5.88;;
7471;SDS011;3777;48.722;8.110;2023-08-12T06:05:14;5.85;;;5.10;;
7471;SDS011;3777;48.722;8.110;2023-08-12T06:07:41;6.35;;;5.22;;
7471;SDS011;3777;48.722;8.110;2023-08-12T06:10:08;5.97;;;5.35;;
7471;SDS011;3777;48.722;8.110;2023-08-12T06:12:36;6.97;;;5.40;;
7471;SDS011;3777;48.722;8.110;2023-08-12T06:15:04;9.50;;;5.55;;
7471;SDS011;3777;48.722;8.110;2023-08-12T06:17:32;8.32;;;5.07;;
7471;SDS011;3777;48.722;8.110;2023-08-12T06:19:59;5.90;;;5.30;;
7471;SDS011;3777;48.722;8.110;2023-08-12T06:22:26;7.20;;;5.53;;
7471;SDS011;3777;48.722;8.110;2023-08-12T06:24:53;5.30;;;4.80;;
7471;SDS011;3777;48.722;8.110;2023-08-12T06:27:20;7.18;;;5.53;;
7471;SDS011;3777;48.722;8.110;2023-08-12T06:29:47;9.68;;;5.82;;
7471;SDS011;3777;48.722;8.110;2023-08-12T06:32:15;6.20;;;5.32;;
7471;SDS011;3777;48.722;8.110;2023-08-12T06:34:42;7.07;;;5.32;;
7471;SDS011;3777;48.722;8.110;2023-08-12T06:37:09;6.75;;;5.00;;
7471;SDS011;3777;48.722;8.110;2023-08-12T06:39:36;6.55;;;4.80;;
7471;SDS011;3777;48.722;8.110;2023-08-12T06:42:03;7.35;;;4.70;;
7471;SDS011;3777;48.722;8.110;2023-08-12T06:44:30;7.38;;;4.90;;
7471;SDS011;3777;48.722;8.110;2023-08-12T06:46:57;7.05;;;5.18;;
7471;SDS011;3777;48.722;8.110;2023-08-12T06:49:25;6.55;;;5.00;;
7471;SDS011;3777;48.722;8.110;2023-08-12T06:51:52;6.03;;;4.85;;
7471;SDS011;3777;48.722;8.110;2023-08-12T06:54:19;5.65;;;4.80;;
7471;SDS011;3777;48.722;8.110;2023-08-12T06:56:47;7.05;;;4.72;;
7471;SDS011;3777;48.722;8.110;2023-08-12T06:59:15;6.53;;;4.93;;
7471;SDS011;3777;48.722;8.110;2023-08-12T07:01:43;7.28;;;4.35;;
7471;SDS011;3777;48.722;8.110;2023-08-12T07:04:10;5.28;;;4.10;;
7471;SDS011;3777;48.722;8.110;2023-08-12T07:06:38;7.75;;;4.60;;
7471;SDS011;3777;48.722;8.110;2023-08-12T07:09:05;5.28;;;4.40;;
7471;SDS011;3777;48.722;8.110;2023-08-12T07:11:32;7.20;;;4.55;;
7471;SDS011;3777;48.722;8.110;2023-08-12T07:13:59;4.90;;;4.38;;
7471;SDS011;3777;48.722;8.110;2023-08-12T07:16:26;9.27;;;4.70;;
7471;SDS011;3777;48.722;8.110;2023-08-12T07:18:53;6.20;;;4.55;;
7471;SDS011;3777;48.722;8.110;2023-08-12T07:21:20;9.05;;;4.90;;
7471;SDS011;3777;48.722;8.110;2023-08-12T07:23:48;7.50;;;4.63;;
7471;SDS011;3777;48.722;8.110;2023-08-12T07:26:15;8.13;;;4.68;;
7471;SDS011;3777;48.722;8.110;2023-08-12T07:28:42;7.82;;;4.53;;
7471;SDS011;3777;48.722;8.110;2023-08-12T07:31:09;7.05;;;4.50;;
7471;SDS011;3777;48.722;8.110;2023-08-12T07:33:36;7.20;;;5.18;;
7471;SDS011;3777;48.722;8.110;2023-08-12T07:36:03;6.47;;;4.55;;
7471;SDS011;3777;48.722;8.110;2023-08-12T07:38:30;7.15;;;4.60;;
7471;SDS011;3777;48.722;8.110;2023-08-12T07:40:58;8.00;;;5.03;;
7471;SDS011;3777;48.722;8.110;2023-08-12T07:43:25;5.97;;;4.60;;
7471;SDS011;3777;48.722;8.110;2023-08-12T07:45:53;5.72;;;4.43;;
7471;SDS011;3777;48.722;8.110;2023-08-12T07:48:20;7.57;;;5.38;;
7471;SDS011;3777;48.722;8.110;2023-08-12T07:50:47;5.60;;;4.72;;
7471;SDS011;3777;48.722;8.110;2023-08-12T07:53:20;5.05;;;4.55;;
7471;SDS011;3777;48.722;8.110;2023-08-12T07:55:48;7.75;;;4.95;;
7471;SDS011;3777;48.722;8.110;2023-08-12T07:58:17;7.90;;;4.40;;
7471;SDS011;3777;48.722;8.110;2023-08-12T08:00:44;6.88;;;4.63;;
7471;SDS011;3777;48.722;8.110;2023-08-12T08:03:11;7.75;;;4.38;;
7471;SDS011;3777;48.722;8.110;2023-08-12T08:05:39;8.80;;;4.72;;
7471;SDS011;3777;48.722;8.110;2023-08-12T08:08:07;6.78;;;5.25;;
7471;SDS011;3777;48.722;8.110;2023-08-12T08:10:34;5.70;;;4.68;;
7471;SDS011;3777;48.722;8.110;2023-08-12T08:13:01;5.55;;;4.53;;
7471;SDS011;3777;48.722;8.110;2023-08-12T08:15:29;8.98;;;4.47;;
7471;SDS011;3777;48.722;8.110;2023-08-12T08:17:57;8.10;;;5.10;;
7471;SDS011;3777;48.722;8.110;2023-08-12T08:20:24;5.50;;;4.88;;
7471;SDS011;3777;48.722;8.110;2023-08-12T08:22:50;6.88;;;4.60;;
7471;SDS011;3777;48.722;8.110;2023-08-12T08:25:20;7.57;;;4.68;;
7471;SDS011;3777;48.722;8.110;2023-08-12T08:27:47;5.00;;;4.53;;
7471;SDS011;3777;48.722;8.110;2023-08-12T08:30:15;5.15;;;4.35;;
7471;SDS011;3777;48.722;8.110;2023-08-12T08:32:43;6.07;;;4.20;;
7471;SDS011;3777;48.722;8.110;2023-08-12T08:35:11;6.20;;;4.70;;
7471;SDS011;3777;48.722;8.110;2023-08-12T08:37:38;4.88;;;4.30;;
7471;SDS011;3777;48.722;8.110;2023-08-12T08:40:08;4.65;;;3.90;;
7471;SDS011;3777;48.722;8.110;2023-08-12T08:42:35;5.57;;;4.10;;
7471;SDS011;3777;48.722;8.110;2023-08-12T08:45:03;4.82;;;4.40;;
7471;SDS011;3777;48.722;8.110;2023-08-12T08:47:37;6.28;;;4.40;;
7471;SDS011;3777;48.722;8.110;2023-08-12T08:50:06;5.20;;;4.10;;
7471;SDS011;3777;48.722;8.110;2023-08-12T08:52:35;5.18;;;4.50;;
7471;SDS011;3777;48.722;8.110;2023-08-12T08:55:03;5.78;;;4.20;;
7471;SDS011;3777;48.722;8.110;2023-08-12T08:57:31;5.68;;;4.25;;
7471;SDS011;3777;48.722;8.110;2023-08-12T08:59:58;4.28;;;3.80;;
7471;SDS011;3777;48.722;8.110;2023-08-12T09:02:25;4.63;;;4.10;;
7471;SDS011;3777;48.722;8.110;2023-08-12T09:04:53;4.38;;;3.97;;
7471;SDS011;3777;48.722;8.110;2023-08-12T09:07:22;6.22;;;3.95;;
7471;SDS011;3777;48.722;8.110;2023-08-12T09:09:49;6.43;;;4.30;;
7471;SDS011;3777;48.722;8.110;2023-08-12T09:12:18;4.57;;;4.18;;
7471;SDS011;3777;48.722;8.110;2023-08-12T09:14:47;4.32;;;3.92;;
7471;SDS011;3777;48.722;8.110;2023-08-12T09:17:14;5.20;;;4.00;;
7471;SDS011;3777;48.722;8.110;2023-08-12T09:19:42;5.25;;;4.05;;
7471;SDS011;3777;48.722;8.110;2023-08-12T09:22:09;5.10;;;4.10;;
7471;SDS011;3777;48.722;8.110;2023-08-12T09:24:38;4.93;;;3.88;;
7471;SDS011;3777;48.722;8.110;2023-08-12T09:27:05;7.90;;;3.72;;
7471;SDS011;3777;48.722;8.110;2023-08-12T09:29:31;4.57;;;3.90;;
7471;SDS011;3777;48.722;8.110;2023-08-12T09:32:05;6.00;;;3.80;;
7471;SDS011;3777;48.722;8.110;2023-08-12T09:34:35;5.78;;;3.42;;
7471;SDS011;3777;48.722;8.110;2023-08-12T09:37:02;4.15;;;3.63;;
7471;SDS011;3777;48.722;8.110;2023-08-12T09:39:29;5.97;;;3.30;;
7471;SDS011;3777;48.722;8.110;2023-08-12T09:41:58;5.80;;;3.88;;
7471;SDS011;3777;48.722;8.110;2023-08-12T09:44:26;4.75;;;3.63;;
7471;SDS011;3777;48.722;8.110;2023-08-12T09:46:56;4.32;;;3.60;;
7471;SDS011;3777;48.722;8.110;2023-08-12T09:49:24;4.50;;;3.40;;
7471;SDS011;3777;48.722;8.110;2023-08-12T09:51:51;3.88;;;3.45;;
7471;SDS011;3777;48.722;8.110;2023-08-12T09:54:18;5.05;;;3.90;;
7471;SDS011;3777;48.722;8.110;2023-08-12T09:56:46;4.22;;;3.38;;
7471;SDS011;3777;48.722;8.110;2023-08-12T09:59:17;3.88;;;3.42;;
7471;SDS011;3777;48.722;8.110;2023-08-12T10:01:46;3.50;;;3.20;;
7471;SDS011;3777;48.722;8.110;2023-08-12T10:04:16;3.80;;;2.92;;
7471;SDS011;3777;48.722;8.110;2023-08-12T10:06:44;4.45;;;2.88;;
7471;SDS011;3777;48.722;8.110;2023-08-12T10:09:12;4.45;;;2.85;;
7471;SDS011;3777;48.722;8.110;2023-08-12T10:11:43;3.38;;;3.08;;
7471;SDS011;3777;48.722;8.110;2023-08-12T10:14:12;3.53;;;2.97;;
7471;SDS011;3777;48.722;8.110;2023-08-12T10:16:41;3.05;;;2.75;;
7471;SDS011;3777;48.722;8.110;2023-08-12T10:19:11;3.72;;;2.90;;
7471;SDS011;3777;48.722;8.110;2023-08-12T10:21:38;3.40;;;2.90;;
7471;SDS011;3777;48.722;8.110;2023-08-12T10:24:07;4.30;;;2.50;;
7471;SDS011;3777;48.722;8.110;2023-08-12T10:26:37;4.45;;;2.90;;
7471;SDS011;3777;48.722;8.110;2023-08-12T10:29:04;4.25;;;2.83;;
7471;SDS011;3777;48.722;8.110;2023-08-12T10:31:32;3.92;;;3.20;;
7471;SDS011;3777;48.722;8.110;2023-08-12T10:34:01;7.70;;;3.70;;
7471;SDS011;3777;48.722;8.110;2023-08-12T10:36:28;7.00;;;3.70;;
7471;SDS011;3777;48.722;8.110;2023-08-12T10:38:59;5.03;;;4.13;;
7471;SDS011;3777;48.722;8.110;2023-08-12T10:41:27;4.40;;;3.75;;
7471;SDS011;3777;48.722;8.110;2023-08-12T10:43:55;4.75;;;4.20;;
7471;SDS011;3777;48.722;8.110;2023-08-12T10:46:30;6.18;;;4.13;;
7471;SDS011;3777;48.722;8.110;2023-08-12T10:49:06;4.97;;;4.00;;
7471;SDS011;3777;48.722;8.110;2023-08-12T10:51:41;4.53;;;3.72;;
7471;SDS011;3777;48.722;8.110;2023-08-12T10:54:15;5.18;;;4.07;;
7471;SDS011;3777;48.722;8.110;2023-08-12T10:59:51;5.95;;;3.88;;
7471;SDS011;3777;48.722;8.110;2023-08-12T11:02:26;4.80;;;4.05;;
7471;SDS011;3777;48.722;8.110;2023-08-12T11:04:56;4.45;;;4.05;;
7471;SDS011;3777;48.722;8.110;2023-08-12T11:07:33;4.70;;;3.88;;
7471;SDS011;3777;48.722;8.110;2023-08-12T11:10:05;5.93;;;3.95;;
7471;SDS011;3777;48.722;8.110;2023-08-12T11:12:37;4.93;;;3.97;;
7471;SDS011;3777;48.722;8.110;2023-08-12T11:15:06;4.85;;;3.70;;
7471;SDS011;3777;48.722;8.110;2023-08-12T11:17:34;4.43;;;3.75;;
7471;SDS011;3777;48.722;8.110;2023-08-12T11:20:05;5.03;;;3.95;;
7471;SDS011;3777;48.722;8.110;2023-08-12T11:22:35;4.32;;;3.83;;
7471;SDS011;3777;48.722;8.110;2023-08-12T11:25:04;6.53;;;3.67;;
7471;SDS011;3777;48.722;8.110;2023-08-12T11:27:40;5.20;;;3.95;;
7471;SDS011;3777;48.722;8.110;2023-08-12T11:30:08;5.07;;;4.38;;
7471;SDS011;3777;48.722;8.110;2023-08-12T11:32:36;5.50;;;4.38;;
7471;SDS011;3777;48.722;8.110;2023-08-12T11:35:06;6.18;;;4.68;;
7471;SDS011;3777;48.722;8.110;2023-08-12T11:37:35;5.50;;;5.00;;
7471;SDS011;3777;48.722;8.110;2023-08-12T11:40:03;6.07;;;4.82;;
7471;SDS011;3777;48.722;8.110;2023-08-12T11:42:33;7.22;;;4.60;;
7471;SDS011;3777;48.722;8.110;2023-08-12T11:45:01;6.78;;;4.43;;
7471;SDS011;3777;48.722;8.110;2023-08-12T11:47:28;5.18;;;4.40;;
7471;SDS011;3777;48.722;8.110;2023-08-12T11:49:55;6.00;;;4.38;;
7471;SDS011;3777;48.722;8.110;2023-08-12T11:52:24;6.30;;;4.47;;
7471;SDS011;3777;48.722;8.110;2023-08-12T11:54:54;5.03;;;4.63;;
7471;SDS011;3777;48.722;8.110;2023-08-12T11:57:22;5.75;;;4.35;;
7471;SDS011;3777;48.722;8.110;2023-08-12T11:59:49;4.47;;;4.07;;
7471;SDS011;3777;48.722;8.110;2023-08-12T12:02:16;3.90;;;3.60;;
7471;SDS011;3777;48.722;8.110;2023-08-12T12:04:43;4.50;;;3.95;;
7471;SDS011;3777;48.722;8.110;2023-08-12T12:07:19;4.28;;;3.65;;
7471;SDS011;3777;48.722;8.110;2023-08-12T12:09:51;4.07;;;3.67;;
7471;SDS011;3777;48.722;8.110;2023-08-12T12:12:21;6.55;;;5.32;;
7471;SDS011;3777;48.722;8.110;2023-08-12T12:14:50;6.47;;;4.25;;
7471;SDS011;3777;48.722;8.110;2023-08-12T12:17:17;5.68;;;4.47;;
7471;SDS011;3777;48.722;8.110;2023-08-12T12:19:46;4.93;;;3.53;;
7471;SDS011;3777;48.722;8.110;2023-08-12T12:22:13;5.22;;;3.80;;
7471;SDS011;3777;48.722;8.110;2023-08-12T12:24:43;4.82;;;2.72;;
7471;SDS011;3777;48.722;8.110;2023-08-12T12:27:13;2.63;;;2.33;;
7471;SDS011;3777;48.722;8.110;2023-08-12T12:29:41;4.10;;;2.88;;
7471;SDS011;3777;48.722;8.110;2023-08-12T12:32:08;3.88;;;2.80;;
7471;SDS011;3777;48.722;8.110;2023-08-12T12:34:35;4.00;;;2.85;;
7471;SDS011;3777;48.722;8.110;2023-08-12T12:37:02;3.17;;;2.80;;
7471;SDS011;3777;48.722;8.110;2023-08-12T12:39:29;4.97;;;2.83;;
7471;SDS011;3777;48.722;8.110;2023-08-12T12:41:56;4.72;;;3.10;;
7471;SDS011;3777;48.722;8.110;2023-08-12T12:44:26;4.07;;;3.03;;
7471;SDS011;3777;48.722;8.110;2023-08-12T12:46:53;4.18;;;3.00;;
7471;SDS011;3777;48.722;8.110;2023-08-12T12:49:20;3.70;;;3.00;;
7471;SDS011;3777;48.722;8.110;2023-08-12T12:51:47;4.88;;;2.80;;
7471;SDS011;3777;48.722;8.110;2023-08-12T12:54:14;3.65;;;2.50;;
7471;SDS011;3777;48.722;8.110;2023-08-12T12:56:41;4.43;;;3.03;;
7471;SDS011;3777;48.722;8.110;2023-08-12T12:59:08;4.00;;;2.88;;
7471;SDS011;3777;48.722;8.110;2023-08-12T13:01:37;3.40;;;2.70;;
7471;SDS011;3777;48.722;8.110;2023-08-12T13:04:07;4.53;;;2.70;;
7471;SDS011;3777;48.722;8.110;2023-08-12T13:06:34;4.18;;;2.80;;
7471;SDS011;3777;48.722;8.110;2023-08-12T13:09:01;5.22;;;2.60;;
7471;SDS011;3777;48.722;8.110;2023-08-12T13:11:31;3.67;;;2.83;;
7471;SDS011;3777;48.722;8.110;2023-08-12T13:13:59;5.38;;;2.95;;
7471;SDS011;3777;48.722;8.110;2023-08-12T13:16:26;4.20;;;2.88;;
7471;SDS011;3777;48.722;8.110;2023-08-12T13:18:54;4.80;;;2.88;;
7471;SDS011;3777;48.722;8.110;2023-08-12T13:21:23;3.58;;;2.88;;
7471;SDS011;3777;48.722;8.110;2023-08-12T13:23:50;3.90;;;2.78;;
7471;SDS011;3777;48.722;8.110;2023-08-12T13:26:17;3.13;;;2.55;;
7471;SDS011;3777;48.722;8.110;2023-08-12T13:28:45;4.18;;;2.80;;
7471;SDS011;3777;48.722;8.110;2023-08-12T13:31:13;4.32;;;2.72;;
7471;SDS011;3777;48.722;8.110;2023-08-12T13:33:40;3.38;;;2.72;;
7471;SDS011;3777;48.722;8.110;2023-08-12T13:36:08;3.53;;;2.90;;
7471;SDS011;3777;48.722;8.110;2023-08-12T13:38:35;3.58;;;3.28;;
7471;SDS011;3777;48.722;8.110;2023-08-12T13:41:02;3.67;;;2.80;;
7471;SDS011;3777;48.722;8.110;2023-08-12T13:43:29;3.13;;;2.83;;
7471;SDS011;3777;48.722;8.110;2023-08-12T13:45:56;3.28;;;2.95;;
7471;SDS011;3777;48.722;8.110;2023-08-12T13:48:23;3.25;;;2.95;;
7471;SDS011;3777;48.722;8.110;2023-08-12T13:50:50;4.32;;;3.20;;
7471;SDS011;3777;48.722;8.110;2023-08-12T13:53:18;4.10;;;3.00;;
7471;SDS011;3777;48.722;8.110;2023-08-12T13:55:46;3.92;;;2.95;;
7471;SDS011;3777;48.722;8.110;2023-08-12T13:58:13;4.13;;;2.97;;
7471;SDS011;3777;48.722;8.110;2023-08-12T14:00:40;3.72;;;3.30;;
7471;SDS011;3777;48.722;8.110;2023-08-12T14:03:07;5.22;;;3.10;;
7471;SDS011;3777;48.722;8.110;2023-08-12T14:05:34;3.55;;;3.20;;
7471;SDS011;3777;48.722;8.110;2023-08-12T14:08:01;4.60;;;3.65;;
7471;SDS011;3777;48.722;8.110;2023-08-12T14:10:29;4.70;;;3.45;;
7471;SDS011;3777;48.722;8.110;2023-08-12T14:12:56;3.47;;;3.17;;
7471;SDS011;3777;48.722;8.110;2023-08-12T14:15:23;3.63;;;3.30;;
7471;SDS011;3777;48.722;8.110;2023-08-12T14:17:50;5.97;;;3.30;;
7471;SDS011;3777;48.722;8.110;2023-08-12T14:20:17;4.57;;;3.08;;
7471;SDS011;3777;48.722;8.110;2023-08-12T14:22:44;3.65;;;2.97;;
7471;SDS011;3777;48.722;8.110;2023-08-12T14:25:11;4.57;;;3.38;;
7471;SDS011;3777;48.722;8.110;2023-08-12T14:27:39;8.13;;;3.50;;
7471;SDS011;3777;48.722;8.110;2023-08-12T14:30:06;11.00;;;4.55;;
7471;SDS011;3777;48.722;8.110;2023-08-12T14:32:34;6.15;;;3.40;;
7471;SDS011;3777;48.722;8.110;2023-08-12T14:35:01;8.02;;;3.97;;
7471;SDS011;3777;48.722;8.110;2023-08-12T14:37:30;6.53;;;4.15;;
7471;SDS011;3777;48.722;8.110;2023-08-12T14:39:57;7.82;;;4.40;;
7471;SDS011;3777;48.722;8.110;2023-08-12T14:42:24;6.03;;;3.83;;
7471;SDS011;3777;48.722;8.110;2023-08-12T14:44:52;4.50;;;3.90;;
7471;SDS011;3777;48.722;8.110;2023-08-12T14:47:19;5.97;;;3.83;;
7471;SDS011;3777;48.722;8.110;2023-08-12T14:49:46;8.30;;;4.47;;
7471;SDS011;3777;48.722;8.110;2023-08-12T14:52:15;6.07;;;3.90;;
7471;SDS011;3777;48.722;8.110;2023-08-12T14:54:43;4.70;;;3.47;;
7471;SDS011;3777;48.722;8.110;2023-08-12T14:57:10;4.85;;;3.80;;
7471;SDS011;3777;48.722;8.110;2023-08-12T14:59:37;9.13;;;3.97;;
7471;SDS011;3777;48.722;8.110;2023-08-12T15:02:06;5.55;;;3.67;;
7471;SDS011;3777;48.722;8.110;2023-08-12T15:04:33;6.72;;;3.95;;
7471;SDS011;3777;48.722;8.110;2023-08-12T15:07:00;6.60;;;4.13;;
7471;SDS011;3777;48.722;8.110;2023-08-12T15:09:27;8.38;;;4.75;;
7471;SDS011;3777;48.722;8.110;2023-08-12T15:11:54;9.30;;;4.57;;
7471;SDS011;3777;48.722;8.110;2023-08-12T15:14:21;7.68;;;4.80;;
7471;SDS011;3777;48.722;8.110;2023-08-12T15:16:48;8.93;;;4.53;;
7471;SDS011;3777;48.722;8.110;2023-08-12T15:19:16;6.50;;;4.45;;
7471;SDS011;3777;48.722;8.110;2023-08-12T15:21:43;7.85;;;4.55;;